createdAt,value
2018-01-11T00:00:58.752Z,13.80
2018-01-11T00:03:27.315Z,13.80
2018-01-11T00:05:55.109Z,13.70
2018-01-11T00:08:23.644Z,13.70
2018-01-11T00:10:51.452Z,13.70
2018-01-11T00:13:20.005Z,13.70
2018-01-11T00:15:47.791Z,13.70
2018-01-11T00:18:16.349Z,13.70
2018-01-11T00:20:44.202Z,13.70
2018-01-11T00:23:12.050Z,13.70
2018-01-11T00:25:39.861Z,13.70
2018-01-11T00:28:07.723Z,13.70
2018-01-11T00:30:35.592Z,13.60
2018-01-11T00:33:03.397Z,13.60
2018-01-11T00:35:31.234Z,13.60
2018-01-11T00:37:59.885Z,13.60
2018-01-11T00:40:27.700Z,13.60
2018-01-11T00:42:56.281Z,13.60
2018-01-11T00:45:24.855Z,13.60
2018-01-11T00:47:53.412Z,13.60
2018-01-11T00:50:21.255Z,13.60
2018-01-11T00:52:49.856Z,13.60
2018-01-11T00:55:17.649Z,13.60
2018-01-11T00:57:46.229Z,13.60
2018-01-11T01:00:14.807Z,13.60
2018-01-11T01:02:43.399Z,13.60
2018-01-11T01:05:11.994Z,13.60
2018-01-11T01:07:40.623Z,13.50
2018-01-11T01:10:08.464Z,13.50
2018-01-11T01:12:36.301Z,13.50
2018-01-11T01:15:04.896Z,13.50
2018-01-11T01:17:32.697Z,13.50
2018-01-11T01:20:00.485Z,13.50
2018-01-11T01:22:28.330Z,13.50
2018-01-11T01:24:56.154Z,13.50
2018-01-11T01:27:24.709Z,13.50
2018-01-11T01:29:52.544Z,13.50
2018-01-11T01:32:20.419Z,13.50
2018-01-11T01:34:48.217Z,13.50
2018-01-11T01:37:16.818Z,13.50
2018-01-11T01:39:44.625Z,13.50
2018-01-11T01:42:12.435Z,13.50
2018-01-11T01:44:41.000Z,13.60
2018-01-11T01:47:08.821Z,13.50
2018-01-11T01:49:36.657Z,13.50
2018-01-11T01:52:05.225Z,13.50
2018-01-11T01:54:33.791Z,13.60
2018-01-11T01:57:01.582Z,13.50
2018-01-11T01:59:30.115Z,13.50
2018-01-11T02:01:57.879Z,13.50
2018-01-11T02:04:25.638Z,13.50
2018-01-11T02:06:53.400Z,13.50
2018-01-11T02:09:21.247Z,13.50
2018-01-11T02:11:49.772Z,13.50
2018-01-11T02:14:17.546Z,13.50
2018-01-11T02:16:45.318Z,13.60
2018-01-11T02:19:13.905Z,13.50
2018-01-11T02:21:42.462Z,13.50
2018-01-11T02:24:10.282Z,13.60
2018-01-11T02:26:38.076Z,13.50
2018-01-11T02:29:05.861Z,13.50
2018-01-11T02:31:33.647Z,13.50
2018-01-11T02:34:02.175Z,13.50
2018-01-11T02:36:29.923Z,13.50
2018-01-11T02:38:57.659Z,13.50
2018-01-11T02:41:26.175Z,13.50
2018-01-11T02:43:53.908Z,13.50
2018-01-11T02:46:22.423Z,13.50
2018-01-11T02:48:50.155Z,13.50
2018-01-11T02:51:17.907Z,13.50
2018-01-11T02:53:46.394Z,13.50
2018-01-11T02:56:14.908Z,13.50
2018-01-11T02:58:42.655Z,13.50
2018-01-11T03:01:10.394Z,13.50
2018-01-11T03:03:38.892Z,13.50
2018-01-11T03:06:06.673Z,13.50
2018-01-11T03:08:34.439Z,13.40
2018-01-11T03:11:02.223Z,13.40
2018-01-11T03:13:30.029Z,13.50
2018-01-11T03:15:58.595Z,13.50
2018-01-11T03:18:26.418Z,13.40
2018-01-11T03:20:54.195Z,13.50
2018-01-11T03:23:21.988Z,13.50
2018-01-11T03:25:49.792Z,13.50
2018-01-11T03:28:17.561Z,13.50
2018-01-11T03:30:45.383Z,13.50
2018-01-11T03:33:13.155Z,13.50
2018-01-11T03:35:40.955Z,13.50
2018-01-11T03:38:08.715Z,13.50
2018-01-11T03:40:36.527Z,13.50
2018-01-11T03:43:04.320Z,13.50
2018-01-11T03:45:32.883Z,13.60
2018-01-11T03:48:00.682Z,13.60
2018-01-11T03:50:28.456Z,13.70
2018-01-11T03:52:56.256Z,13.70
2018-01-11T03:55:24.036Z,13.70
2018-01-11T03:57:51.916Z,13.70
2018-01-11T04:00:19.711Z,13.70
2018-01-11T04:02:47.485Z,13.70
2018-01-11T04:05:15.260Z,13.70
2018-01-11T04:07:43.030Z,13.70
2018-01-11T04:10:10.872Z,13.80
2018-01-11T04:12:38.638Z,13.70
2018-01-11T04:15:06.426Z,13.70
2018-01-11T04:17:34.192Z,13.70
2018-01-11T04:20:01.968Z,13.60
2018-01-11T04:22:29.743Z,13.60
2018-01-11T04:24:57.555Z,13.60
2018-01-11T04:27:25.383Z,13.50
2018-01-11T04:29:53.928Z,13.60
2018-01-11T04:32:21.749Z,13.60
2018-01-11T04:34:50.285Z,13.60
2018-01-11T04:37:18.115Z,13.60
2018-01-11T04:39:45.936Z,13.60
2018-01-11T04:42:13.736Z,13.60
2018-01-11T04:44:42.303Z,13.60
2018-01-11T04:47:10.850Z,13.60
2018-01-11T04:49:38.624Z,13.60
2018-01-11T04:52:06.395Z,13.60
2018-01-11T04:54:34.187Z,13.60
2018-01-11T04:57:02.752Z,13.60
2018-01-11T04:59:30.532Z,13.60
2018-01-11T05:01:58.317Z,13.60
2018-01-11T05:04:26.142Z,13.60
2018-01-11T05:06:54.767Z,13.60
2018-01-11T05:09:22.568Z,13.60
2018-01-11T05:11:50.356Z,13.60
2018-01-11T05:14:18.152Z,13.60
2018-01-11T05:16:45.967Z,13.60
2018-01-11T05:19:13.731Z,13.60
2018-01-11T05:21:41.551Z,13.60
2018-01-11T05:24:09.332Z,13.60
2018-01-11T05:26:37.129Z,13.60
2018-01-11T05:29:04.917Z,13.60
2018-01-11T05:31:33.510Z,13.50
2018-01-11T05:34:02.056Z,13.50
2018-01-11T05:36:29.887Z,13.50
2018-01-11T05:38:57.647Z,13.50
2018-01-11T05:41:25.474Z,13.50
2018-01-11T05:43:54.151Z,13.40
2018-01-11T05:46:21.998Z,13.40
2018-01-11T05:48:50.587Z,13.40
2018-01-11T05:51:19.167Z,13.40
2018-01-11T05:53:47.006Z,13.40
2018-01-11T05:56:14.800Z,13.40
2018-01-11T05:58:42.713Z,13.40
2018-01-11T06:01:10.507Z,13.40
2018-01-11T06:03:38.271Z,13.40
2018-01-11T06:06:06.076Z,13.40
2018-01-11T06:08:33.870Z,13.40
2018-01-11T06:11:01.636Z,13.30
2018-01-11T06:13:30.160Z,13.30
2018-01-11T06:15:57.949Z,13.30
2018-01-11T06:18:25.735Z,13.30
2018-01-11T06:20:54.349Z,13.20
2018-01-11T06:23:22.214Z,13.20
2018-01-11T06:25:50.006Z,13.20
2018-01-11T06:28:17.795Z,13.20
2018-01-11T06:30:45.573Z,13.20
2018-01-11T06:33:14.114Z,13.20
2018-01-11T06:35:41.900Z,13.20
2018-01-11T06:38:09.687Z,13.20
2018-01-11T06:40:38.248Z,13.10
2018-01-11T06:43:06.044Z,13.10
2018-01-11T06:45:33.813Z,13.10
2018-01-11T06:48:01.593Z,13.10
2018-01-11T06:50:29.385Z,13.10
2018-01-11T06:52:57.247Z,13.00
2018-01-11T06:55:25.077Z,13.00
2018-01-11T06:57:52.963Z,13.00
2018-01-11T07:00:20.800Z,13.00
2018-01-11T07:02:48.572Z,12.90
2018-01-11T07:05:16.364Z,12.90
2018-01-11T07:07:44.137Z,12.90
2018-01-11T07:10:11.928Z,12.90
2018-01-11T07:12:39.753Z,12.90
2018-01-11T07:15:07.555Z,13.00
2018-01-11T07:17:35.315Z,13.00
2018-01-11T07:20:03.099Z,13.00
2018-01-11T07:22:31.661Z,12.90
2018-01-11T07:24:59.500Z,12.90
2018-01-11T07:27:27.302Z,12.90
2018-01-11T07:29:55.135Z,12.90
2018-01-11T07:32:22.920Z,12.90
2018-01-11T07:34:50.688Z,13.00
2018-01-11T07:37:18.516Z,13.00
2018-01-11T07:39:46.292Z,13.00
2018-01-11T07:42:14.087Z,13.00
2018-01-11T07:44:41.919Z,13.00
2018-01-11T07:47:09.709Z,13.00
2018-01-11T07:49:37.479Z,13.00
2018-01-11T07:52:05.256Z,13.00
2018-01-11T07:54:33.813Z,13.00
2018-01-11T07:57:01.586Z,13.00
2018-01-11T07:59:29.342Z,13.00
2018-01-11T08:01:57.091Z,13.00
2018-01-11T08:04:24.848Z,13.00
2018-01-11T08:06:52.619Z,13.00
2018-01-11T08:09:20.491Z,13.00
2018-01-11T08:11:48.358Z,12.90
2018-01-11T08:14:16.155Z,12.90
2018-01-11T08:16:44.700Z,12.90
2018-01-11T08:19:12.550Z,12.90
2018-01-11T08:21:40.333Z,13.00
2018-01-11T08:24:08.103Z,12.90
2018-01-11T08:26:35.856Z,13.10
2018-01-11T08:29:03.626Z,13.10
2018-01-11T08:31:31.415Z,13.10
2018-01-11T08:33:59.246Z,13.20
2018-01-11T08:36:27.030Z,13.30
2018-01-11T08:38:54.871Z,13.40
2018-01-11T08:41:22.639Z,13.50
2018-01-11T08:43:50.435Z,13.60
2018-01-11T08:46:18.191Z,13.70
2018-01-11T08:48:46.041Z,13.80
2018-01-11T08:51:13.844Z,13.90
2018-01-11T08:53:42.406Z,14.00
2018-01-11T08:56:10.216Z,14.00
2018-01-11T08:58:37.988Z,14.10
2018-01-11T09:01:05.756Z,14.20
2018-01-11T09:03:33.606Z,14.20
2018-01-11T09:06:01.408Z,14.30
2018-01-11T09:08:29.204Z,14.30
2018-01-11T09:10:57.775Z,14.50
2018-01-11T09:13:25.585Z,14.50
2018-01-11T09:15:53.363Z,14.60
2018-01-11T09:18:21.145Z,14.60
2018-01-11T09:20:48.983Z,14.60
2018-01-11T09:23:16.765Z,14.70
2018-01-11T09:25:44.553Z,14.70
2018-01-11T09:28:12.354Z,14.80
2018-01-11T09:30:40.201Z,14.80
2018-01-11T09:33:07.993Z,14.90
2018-01-11T09:35:35.771Z,14.90
2018-01-11T09:38:03.580Z,15.00
2018-01-11T09:40:31.381Z,15.10
2018-01-11T09:42:59.913Z,15.10
2018-01-11T09:45:27.747Z,15.10
2018-01-11T09:47:55.543Z,15.20
2018-01-11T09:50:23.387Z,15.20
2018-01-11T09:52:51.168Z,15.20
2018-01-11T09:55:18.927Z,15.30
2018-01-11T09:57:46.691Z,15.30
2018-01-11T10:00:14.456Z,15.30
2018-01-11T10:02:42.248Z,15.40
2018-01-11T10:05:11.055Z,15.50
2018-01-11T10:07:39.623Z,15.60
2018-01-11T10:10:07.443Z,15.60
2018-01-11T10:12:35.236Z,15.60
2018-01-11T10:15:03.042Z,15.70
2018-01-11T10:17:30.819Z,15.70
2018-01-11T10:19:58.671Z,15.80
2018-01-11T10:22:26.455Z,15.80
2018-01-11T10:24:54.254Z,15.90
2018-01-11T10:27:22.028Z,16.00
2018-01-11T10:29:49.791Z,16.10
2018-01-11T10:32:17.646Z,16.10
2018-01-11T10:34:45.445Z,16.10
2018-01-11T10:37:13.219Z,16.10
2018-01-11T10:39:41.793Z,16.10
2018-01-11T10:42:10.336Z,16.00
2018-01-11T10:44:38.170Z,16.00
2018-01-11T10:47:06.035Z,16.00
2018-01-11T10:49:33.814Z,15.90
2018-01-11T10:52:01.608Z,15.90
2018-01-11T10:54:29.399Z,15.90
2018-01-11T10:56:57.179Z,15.90
2018-01-11T10:59:25.015Z,15.90
2018-01-11T11:01:58.473Z,15.90
2018-01-11T11:04:26.302Z,15.90
2018-01-11T11:06:54.097Z,15.90
2018-01-11T11:09:21.862Z,15.90
2018-01-11T11:11:49.650Z,15.90
2018-01-11T11:14:18.261Z,16.00
2018-01-11T11:16:46.822Z,16.00
2018-01-11T11:19:15.399Z,16.10
2018-01-11T11:21:43.205Z,16.10
2018-01-11T11:24:11.017Z,16.10
2018-01-11T11:26:38.783Z,16.10
2018-01-11T11:29:06.655Z,16.20
2018-01-11T11:31:34.480Z,16.30
2018-01-11T11:34:02.281Z,16.30
2018-01-11T11:36:30.108Z,16.30
2018-01-11T11:38:57.916Z,16.30
2018-01-11T11:41:25.686Z,16.30
2018-01-11T11:43:53.500Z,16.30
2018-01-11T11:46:22.103Z,16.40
2018-01-11T11:48:49.934Z,16.40
2018-01-11T11:51:17.725Z,16.40
2018-01-11T11:53:45.593Z,16.50
2018-01-11T11:56:13.389Z,16.40
2018-01-11T11:58:41.230Z,16.50
2018-01-11T12:01:09.043Z,16.50
2018-01-11T12:03:36.856Z,16.40
2018-01-11T12:06:04.694Z,16.30
2018-01-11T12:08:33.279Z,16.20
2018-01-11T12:11:01.054Z,16.30
2018-01-11T12:13:28.901Z,16.30
2018-01-11T12:15:56.776Z,16.20
2018-01-11T12:18:25.323Z,16.20
2018-01-11T12:20:53.121Z,16.20
2018-01-11T12:23:20.904Z,16.30
2018-01-11T12:25:48.771Z,16.30
2018-01-11T12:28:16.609Z,16.20
2018-01-11T12:30:45.168Z,16.10
2018-01-11T12:33:12.963Z,16.10
2018-01-11T12:35:41.595Z,16.00
2018-01-11T12:38:09.481Z,16.00
2018-01-11T12:40:37.430Z,16.10
2018-01-11T12:43:05.278Z,16.10
2018-01-11T12:45:33.062Z,16.10
2018-01-11T12:48:00.850Z,16.20
2018-01-11T12:50:28.696Z,16.20
2018-01-11T12:52:56.535Z,16.20
2018-01-11T12:55:24.316Z,16.20
2018-01-11T12:57:52.095Z,16.20
2018-01-11T13:00:19.895Z,16.20
2018-01-11T13:02:48.465Z,16.20
2018-01-11T13:05:16.256Z,16.10
2018-01-11T13:07:44.804Z,16.20
2018-01-11T13:10:12.608Z,16.20
2018-01-11T13:12:40.587Z,16.20
2018-01-11T13:15:08.440Z,16.20
2018-01-11T13:17:36.266Z,16.20
2018-01-11T13:20:04.064Z,16.20
2018-01-11T13:22:31.935Z,16.20
2018-01-11T13:24:59.768Z,16.30
2018-01-11T13:27:27.553Z,16.30
2018-01-11T13:29:56.097Z,16.30
2018-01-11T13:32:23.920Z,16.30
2018-01-11T13:34:51.716Z,16.40
2018-01-11T13:37:19.593Z,16.40
2018-01-11T13:39:47.503Z,16.40
2018-01-11T13:42:16.062Z,16.40
2018-01-11T13:44:43.846Z,16.40
2018-01-11T13:47:12.393Z,16.50
2018-01-11T13:49:40.165Z,16.40
2018-01-11T13:52:08.045Z,16.50
2018-01-11T13:54:36.599Z,16.50
2018-01-11T13:57:04.373Z,16.50
2018-01-11T13:59:32.217Z,16.50
2018-01-11T14:02:00.057Z,16.40
2018-01-11T14:04:27.851Z,16.40
2018-01-11T14:06:55.627Z,16.50
2018-01-11T14:09:23.395Z,16.50
2018-01-11T14:11:51.204Z,16.40
2018-01-11T14:14:19.756Z,16.40
2018-01-11T14:16:47.520Z,16.40
2018-01-11T14:19:15.283Z,16.40
2018-01-11T14:21:43.085Z,16.30
2018-01-11T14:24:10.893Z,16.40
2018-01-11T14:26:38.684Z,16.40
2018-01-11T14:29:07.238Z,16.30
2018-01-11T14:31:35.107Z,16.30
2018-01-11T14:34:02.930Z,16.30
2018-01-11T14:36:30.768Z,16.20
2018-01-11T14:38:59.344Z,16.30
2018-01-11T14:41:27.127Z,16.30
2018-01-11T14:43:55.657Z,16.30
2018-01-11T14:46:23.461Z,16.30
2018-01-11T14:48:51.378Z,16.30
2018-01-11T14:51:19.244Z,16.30
2018-01-11T14:53:47.030Z,16.30
2018-01-11T14:56:14.846Z,16.30
2018-01-11T14:58:43.448Z,16.40
2018-01-11T15:01:11.230Z,16.40
2018-01-11T15:03:39.068Z,16.40
2018-01-11T15:06:06.914Z,16.40
2018-01-11T15:08:35.483Z,16.40
2018-01-11T15:11:03.331Z,16.30
2018-01-11T15:13:31.128Z,16.30
2018-01-11T15:15:59.767Z,16.40
2018-01-11T15:18:27.575Z,16.30
2018-01-11T15:20:56.126Z,16.30
2018-01-11T15:23:24.012Z,16.30
2018-01-11T15:25:51.792Z,16.30
2018-01-11T15:28:20.378Z,16.30
2018-01-11T15:30:48.192Z,16.20
2018-01-11T15:33:15.969Z,16.20
2018-01-11T15:35:43.822Z,16.20
2018-01-11T15:38:12.310Z,16.20
2018-01-11T15:40:40.195Z,16.30
2018-01-11T15:43:07.967Z,16.20
2018-01-11T15:45:35.806Z,16.20
2018-01-11T15:48:03.695Z,16.10
2018-01-11T15:50:32.242Z,16.10
2018-01-11T15:53:00.061Z,16.10
2018-01-11T15:55:28.669Z,16.20
2018-01-11T15:57:56.614Z,16.20
2018-01-11T16:00:24.417Z,16.10
2018-01-11T16:02:52.268Z,16.20
2018-01-11T16:05:20.841Z,16.20
2018-01-11T16:07:49.492Z,16.20
2018-01-11T16:10:17.287Z,16.20
2018-01-11T16:12:45.869Z,16.20
2018-01-11T16:15:13.719Z,16.20
2018-01-11T16:17:42.590Z,16.30
2018-01-11T16:20:10.466Z,16.30
2018-01-11T16:22:39.022Z,16.20
2018-01-11T16:25:07.007Z,16.20
2018-01-11T16:27:34.771Z,16.30
2018-01-11T16:30:02.851Z,16.30
2018-01-11T16:32:31.433Z,16.30
2018-01-11T16:34:59.232Z,16.30
2018-01-11T16:37:26.999Z,16.30
2018-01-11T16:39:54.807Z,16.30
2018-01-11T16:42:22.612Z,16.20
2018-01-11T16:44:51.180Z,16.20
2018-01-11T16:47:19.794Z,16.10
2018-01-11T16:49:47.600Z,16.10
2018-01-11T16:52:15.382Z,16.10
2018-01-11T16:54:43.171Z,16.10
2018-01-11T16:57:11.735Z,16.10
2018-01-11T16:59:39.530Z,16.10
2018-01-11T17:02:07.299Z,16.10
2018-01-11T17:04:35.175Z,16.10
2018-01-11T17:07:03.003Z,16.10
2018-01-11T17:09:31.570Z,16.00
2018-01-11T17:11:59.429Z,16.00
2018-01-11T17:14:27.275Z,16.00
2018-01-11T17:16:55.066Z,16.00
2018-01-11T17:19:22.839Z,16.00
2018-01-11T17:21:50.643Z,16.00
2018-01-11T17:24:18.458Z,16.00
2018-01-11T17:26:46.310Z,16.00
2018-01-11T17:29:14.103Z,15.90
2018-01-11T17:31:41.940Z,15.90
2018-01-11T17:34:09.714Z,15.90
2018-01-11T17:36:37.559Z,15.90
2018-01-11T17:39:05.393Z,15.90
2018-01-11T17:41:33.187Z,15.90
2018-01-11T17:44:00.972Z,15.90
2018-01-11T17:46:28.818Z,15.90
2018-01-11T17:48:56.615Z,16.00
2018-01-11T17:51:24.428Z,16.00
2018-01-11T17:53:52.248Z,16.00
2018-01-11T17:56:20.061Z,15.90
2018-01-11T17:58:47.835Z,15.90
2018-01-11T18:01:15.775Z,15.90
2018-01-11T18:03:43.723Z,15.90
2018-01-11T18:06:11.482Z,15.90
2018-01-11T18:08:39.279Z,15.90
2018-01-11T18:11:07.059Z,15.90
2018-01-11T18:13:34.855Z,15.80
2018-01-11T18:16:02.627Z,15.80
2018-01-11T18:18:30.585Z,15.80
2018-01-11T18:20:58.428Z,15.80
2018-01-11T18:23:26.308Z,15.80
2018-01-11T18:25:54.092Z,15.80
2018-01-11T18:28:21.860Z,15.80
2018-01-11T18:30:49.677Z,15.80
2018-01-11T18:33:17.533Z,15.80
2018-01-11T18:35:46.300Z,15.70
2018-01-11T18:38:14.122Z,15.70
2018-01-11T18:40:41.973Z,15.70
2018-01-11T18:43:09.791Z,15.70
2018-01-11T18:45:38.438Z,15.70
2018-01-11T18:48:06.219Z,15.70
2018-01-11T18:50:33.995Z,15.70
2018-01-11T18:53:01.802Z,15.70
2018-01-11T18:55:30.223Z,15.70
2018-01-11T18:57:57.992Z,15.70
2018-01-11T19:00:25.775Z,15.60
2018-01-11T19:02:54.435Z,15.60
2018-01-11T19:05:22.221Z,15.60
2018-01-11T19:07:51.446Z,15.50
2018-01-11T19:10:19.216Z,15.50
2018-01-11T19:12:47.012Z,15.50
2018-01-11T19:15:14.807Z,15.50
2018-01-11T19:17:43.355Z,15.50
2018-01-11T19:20:11.189Z,15.50
2018-01-11T19:22:38.995Z,15.50
2018-01-11T19:25:06.842Z,15.50
2018-01-11T19:27:34.689Z,15.40
2018-01-11T19:30:02.512Z,15.40
2018-01-11T19:32:30.300Z,15.40
2018-01-11T19:34:58.847Z,15.40
2018-01-11T19:37:26.614Z,15.40
2018-01-11T19:39:55.211Z,15.40
2018-01-11T19:42:22.981Z,15.40
2018-01-11T19:44:51.582Z,15.30
2018-01-11T19:47:19.375Z,15.30
2018-01-11T19:49:47.132Z,15.30
2018-01-11T19:52:14.899Z,15.30
2018-01-11T19:54:42.675Z,15.20
2018-01-11T19:57:10.440Z,15.20
2018-01-11T19:59:38.228Z,15.20
2018-01-11T20:02:06.029Z,15.30
2018-01-11T20:04:33.858Z,15.30
2018-01-11T20:07:01.711Z,15.30
2018-01-11T20:09:29.625Z,15.30
2018-01-11T20:11:57.403Z,15.30
2018-01-11T20:14:25.252Z,15.30
2018-01-11T20:16:53.045Z,15.30
2018-01-11T20:19:20.840Z,15.30
2018-01-11T20:21:48.696Z,15.30
2018-01-11T20:24:16.483Z,15.20
2018-01-11T20:26:44.262Z,15.20
2018-01-11T20:29:12.810Z,15.20
2018-01-11T20:31:40.637Z,15.20
2018-01-11T20:34:08.443Z,15.20
2018-01-11T20:36:36.267Z,15.20
2018-01-11T20:39:04.233Z,15.20
2018-01-11T20:41:32.004Z,15.20
2018-01-11T20:43:59.819Z,15.10
2018-01-11T20:46:27.595Z,15.10
2018-01-11T20:48:55.388Z,15.10
2018-01-11T20:51:24.167Z,15.00
2018-01-11T20:53:52.687Z,15.00
2018-01-11T20:56:20.456Z,15.10
2018-01-11T20:58:48.249Z,15.00
2018-01-11T21:01:16.040Z,15.00
2018-01-11T21:03:43.828Z,15.00
2018-01-11T21:06:11.628Z,15.00
2018-01-11T21:08:39.408Z,15.00
2018-01-11T21:11:07.177Z,15.00
2018-01-11T21:13:34.940Z,15.00
2018-01-11T21:16:02.727Z,15.00
2018-01-11T21:18:31.348Z,15.00
2018-01-11T21:20:59.131Z,15.00
2018-01-11T21:23:26.966Z,15.00
2018-01-11T21:25:54.807Z,15.00
2018-01-11T21:28:22.579Z,15.00
2018-01-11T21:30:51.119Z,14.90
2018-01-11T21:33:18.927Z,14.90
2018-01-11T21:35:48.277Z,14.90
2018-01-11T21:38:17.078Z,15.00
2018-01-11T21:40:44.876Z,15.00
2018-01-11T21:43:13.463Z,14.90
2018-01-11T21:45:41.266Z,14.90
2018-01-11T21:48:09.047Z,14.90
2018-01-11T21:50:36.995Z,14.90
2018-01-11T21:53:04.834Z,14.90
2018-01-11T21:55:32.635Z,14.90
2018-01-11T21:58:00.449Z,14.80
2018-01-11T22:00:29.005Z,14.70
2018-01-11T22:02:56.795Z,14.70
2018-01-11T22:05:25.383Z,14.70
2018-01-11T22:07:53.274Z,14.70
2018-01-11T22:10:21.341Z,14.70
2018-01-11T22:12:49.884Z,14.60
2018-01-11T22:15:18.478Z,14.60
2018-01-11T22:17:47.027Z,14.60
2018-01-11T22:20:14.821Z,14.60
2018-01-11T22:22:43.461Z,14.60
2018-01-11T22:25:11.306Z,14.60
2018-01-11T22:27:39.089Z,14.60
2018-01-11T22:30:06.867Z,14.60
